Time,TemperatureF,DewpointF,PressureIn,WindDirection,WindDirectionDegrees,WindSpeedMPH,WindSpeedGustMPH,Humidity,HourlyPrecipIn,Conditions,Clouds,dailyrainin,SolarRadiationWatts/m^2,SoftwareType,DateUTC
2013-09-27 00:23:00,73.0,60.0,-100.00,SE,143,16.0,23.0,64,0.00,,,0.00,0.000000,,2013-09-27 05:23:00,
2013-09-27 00:34:00,73.0,60.0,-100.00,SE,143,16.0,23.0,64,0.00,,,0.00,0.000000,,2013-09-27 05:34:00,
2013-09-27 00:43:00,73.0,60.0,-100.00,SE,143,16.0,23.0,64,0.00,,,0.00,0.000000,,2013-09-27 05:43:00,
2013-09-27 00:52:00,73.0,60.0,-100.00,SE,143,16.0,23.0,64,0.00,,,0.00,0.000000,,2013-09-27 05:52:00,
2013-09-27 01:22:00,73.0,61.0,-100.00,SE,146,15.0,22.0,66,0.00,,,0.00,0.000000,,2013-09-27 06:22:00,
2013-09-27 01:32:00,73.0,61.0,-100.00,SE,146,15.0,22.0,66,0.00,,,0.00,0.000000,,2013-09-27 06:32:00,
2013-09-27 01:43:00,73.0,61.0,-100.00,SE,146,15.0,22.0,66,0.00,,,0.00,0.000000,,2013-09-27 06:43:00,
2013-09-27 01:52:00,73.0,61.0,-100.00,SE,146,15.0,22.0,66,0.00,,,0.00,0.000000,,2013-09-27 06:52:00,
2013-09-27 02:22:00,72.0,60.0,-100.00,SE,146,15.0,21.0,67,0.00,,,-99.99,0.000000,,2013-09-27 07:22:00,
2013-09-27 02:32:00,72.0,60.0,-100.00,SE,146,15.0,21.0,67,0.00,,,-99.99,0.000000,,2013-09-27 07:32:00,
2013-09-27 02:43:00,72.0,60.0,-100.00,SE,146,15.0,21.0,67,0.00,,,-99.99,0.000000,,2013-09-27 07:43:00,
2013-09-27 02:53:00,72.0,60.0,-100.00,SE,146,15.0,21.0,67,0.00,,,-99.99,0.000000,,2013-09-27 07:53:00,
2013-09-27 03:22:00,72.0,60.0,-100.00,SSE,147,15.0,21.0,67,0.00,,,0.00,0.000000,,2013-09-27 08:22:00,
2013-09-27 03:32:00,72.0,60.0,-100.00,SSE,147,15.0,21.0,67,0.00,,,0.00,0.000000,,2013-09-27 08:32:00,
2013-09-27 03:42:00,72.0,60.0,-100.00,SSE,147,15.0,21.0,67,0.00,,,0.00,0.000000,,2013-09-27 08:42:00,
2013-09-27 03:52:00,72.0,60.0,-100.00,SSE,147,15.0,21.0,67,0.00,,,0.00,0.000000,,2013-09-27 08:52:00,
2013-09-27 04:22:00,72.0,60.0,-100.00,SSE,154,16.0,22.0,65,0.00,,,0.00,0.000000,,2013-09-27 09:22:00,
2013-09-27 04:33:00,72.0,60.0,-100.00,SSE,154,16.0,22.0,65,0.00,,,0.00,0.000000,,2013-09-27 09:33:00,
2013-09-27 04:44:00,72.0,60.0,-100.00,SSE,154,16.0,22.0,65,0.00,,,0.00,0.000000,,2013-09-27 09:44:00,
2013-09-27 04:53:00,72.0,60.0,-100.00,SSE,154,16.0,22.0,65,0.00,,,0.00,0.000000,,2013-09-27 09:53:00,
2013-09-27 05:23:00,71.0,58.0,-100.00,SSE,156,13.0,22.0,64,0.00,,,0.00,0.000000,,2013-09-27 10:23:00,
2013-09-27 05:33:00,71.0,58.0,-100.00,SSE,156,13.0,22.0,64,0.00,,,0.00,0.000000,,2013-09-27 10:33:00,
2013-09-27 05:42:00,71.0,58.0,-100.00,SSE,156,13.0,22.0,64,0.00,,,0.00,0.000000,,2013-09-27 10:42:00,
2013-09-27 05:52:00,71.0,58.0,-100.00,SSE,156,13.0,22.0,64,0.00,,,0.00,0.000000,,2013-09-27 10:52:00,
2013-09-27 06:22:00,69.0,57.0,-100.00,SSE,158,11.0,18.0,66,0.00,,,0.00,0.000000,,2013-09-27 11:22:00,
2013-09-27 06:33:00,69.0,57.0,-100.00,SSE,158,11.0,18.0,66,0.00,,,0.00,0.000000,,2013-09-27 11:33:00,
2013-09-27 06:43:00,69.0,57.0,-100.00,SSE,158,11.0,18.0,66,0.00,,,0.00,0.000000,,2013-09-27 11:43:00,
2013-09-27 06:52:00,69.0,57.0,-100.00,SSE,158,11.0,18.0,66,0.00,,,0.00,0.000000,,2013-09-27 11:52:00,
2013-09-27 07:21:00,68.0,57.0,-100.00,SSE,160,12.0,16.0,67,0.00,,,0.00,0.000000,,2013-09-27 12:21:00,
2013-09-27 07:32:00,68.0,57.0,-100.00,SSE,160,12.0,16.0,67,0.00,,,0.00,0.000000,,2013-09-27 12:32:00,
2013-09-27 07:42:00,68.0,57.0,-100.00,SSE,160,12.0,16.0,67,0.00,,,0.00,0.000000,,2013-09-27 12:42:00,
2013-09-27 07:52:00,68.0,57.0,-100.00,SSE,160,12.0,16.0,67,0.00,,,0.00,0.000000,,2013-09-27 12:52:00,
2013-09-27 08:22:00,68.0,56.0,-100.00,SSE,156,12.0,19.0,65,0.00,,,0.00,0.000000,,2013-09-27 13:22:00,
2013-09-27 08:32:00,68.0,56.0,-100.00,SSE,156,12.0,19.0,65,0.00,,,0.00,0.000000,,2013-09-27 13:32:00,
2013-09-27 08:42:00,68.0,56.0,-100.00,SSE,156,12.0,19.0,65,0.00,,,0.00,0.000000,,2013-09-27 13:42:00,
2013-09-27 08:52:00,68.0,56.0,-100.00,SSE,156,12.0,19.0,65,0.00,,,0.00,0.000000,,2013-09-27 13:52:00,
2013-09-27 09:22:00,70.0,56.0,-100.00,SSE,158,13.0,19.0,61,0.00,,,0.00,0.000000,,2013-09-27 14:22:00,
2013-09-27 09:32:00,70.0,56.0,-100.00,SSE,158,13.0,19.0,61,0.00,,,0.00,0.000000,,2013-09-27 14:32:00,
2013-09-27 09:42:00,70.0,56.0,-100.00,SSE,158,13.0,19.0,61,0.00,,,0.00,0.000000,,2013-09-27 14:42:00,
2013-09-27 09:52:00,70.0,56.0,-100.00,SSE,158,13.0,19.0,61,0.00,,,0.00,0.000000,,2013-09-27 14:52:00,
2013-09-27 10:22:00,75.0,56.0,-100.00,SSE,159,18.0,26.0,52,0.00,,,0.00,0.000000,,2013-09-27 15:22:00,
2013-09-27 10:33:00,75.0,56.0,-100.00,SSE,159,18.0,26.0,52,0.00,,,0.00,0.000000,,2013-09-27 15:33:00,
2013-09-27 10:44:00,75.0,56.0,-100.00,SSE,159,18.0,26.0,52,0.00,,,0.00,0.000000,,2013-09-27 15:44:00,
2013-09-27 10:54:00,75.0,56.0,-100.00,SSE,159,18.0,26.0,52,0.00,,,0.00,0.000000,,2013-09-27 15:54:00,
2013-09-27 11:24:00,79.0,58.0,-100.00,SSE,163,19.0,29.0,49,0.00,,,0.00,0.000000,,2013-09-27 16:24:00,
2013-09-27 11:34:00,79.0,58.0,-100.00,SSE,163,19.0,29.0,49,0.00,,,0.00,0.000000,,2013-09-27 16:34:00,
2013-09-27 11:44:00,79.0,58.0,-100.00,SSE,163,19.0,29.0,49,0.00,,,0.00,0.000000,,2013-09-27 16:44:00,
2013-09-27 11:53:00,79.0,58.0,-100.00,SSE,163,19.0,29.0,49,0.00,,,0.00,0.000000,,2013-09-27 16:53:00,
2013-09-27 12:23:00,83.0,57.0,-100.00,SSE,166,20.0,27.0,41,0.00,,,0.00,0.000000,,2013-09-27 17:23:00,
2013-09-27 12:34:00,83.0,57.0,-100.00,SSE,166,20.0,27.0,41,0.00,,,0.00,0.000000,,2013-09-27 17:34:00,
2013-09-27 12:43:00,83.0,57.0,-100.00,SSE,166,20.0,27.0,41,0.00,,,0.00,0.000000,,2013-09-27 17:43:00,
2013-09-27 12:52:00,83.0,57.0,-100.00,SSE,166,20.0,27.0,41,0.00,,,0.00,0.000000,,2013-09-27 17:52:00,
2013-09-27 13:22:00,87.0,58.0,-100.00,SSE,166,19.0,26.0,37,0.00,,,0.00,0.000000,,2013-09-27 18:22:00,
2013-09-27 13:33:00,87.0,58.0,-100.00,SSE,166,19.0,26.0,37,0.00,,,0.00,0.000000,,2013-09-27 18:33:00,
2013-09-27 13:43:00,87.0,58.0,-100.00,SSE,166,19.0,26.0,37,0.00,,,0.00,0.000000,,2013-09-27 18:43:00,
2013-09-27 13:52:00,87.0,58.0,-100.00,SSE,166,19.0,26.0,37,0.00,,,0.00,0.000000,,2013-09-27 18:52:00,
2013-09-27 14:22:00,86.0,54.0,-100.00,South,176,19.0,29.0,34,0.00,,,0.00,0.000000,,2013-09-27 19:22:00,
2013-09-27 14:32:00,86.0,54.0,-100.00,South,176,19.0,29.0,34,0.00,,,0.00,0.000000,,2013-09-27 19:32:00,
2013-09-27 14:43:00,86.0,54.0,-100.00,South,176,19.0,29.0,34,0.00,,,0.00,0.000000,,2013-09-27 19:43:00,
2013-09-27 14:53:00,86.0,54.0,-100.00,South,176,19.0,29.0,34,0.00,,,0.00,0.000000,,2013-09-27 19:53:00,
2013-09-27 15:22:00,86.0,59.0,-100.00,South,169,16.0,25.0,40,0.00,,,0.00,0.000000,,2013-09-27 20:22:00,
2013-09-27 15:32:00,86.0,59.0,-100.00,South,169,16.0,25.0,40,0.00,,,0.00,0.000000,,2013-09-27 20:32:00,
2013-09-27 15:43:00,86.0,59.0,-100.00,South,169,16.0,25.0,40,0.00,,,0.00,0.000000,,2013-09-27 20:43:00,
2013-09-27 15:52:00,86.0,59.0,-100.00,South,169,16.0,25.0,40,0.00,,,0.00,0.000000,,2013-09-27 20:52:00,
2013-09-27 16:22:00,91.0,60.0,-100.00,SSE,163,18.0,30.0,36,0.00,,,0.00,0.000000,,2013-09-27 21:22:00,
2013-09-27 16:34:00,91.0,60.0,-100.00,SSE,163,18.0,30.0,36,0.00,,,0.00,0.000000,,2013-09-27 21:34:00,
2013-09-27 16:44:00,91.0,60.0,-100.00,SSE,163,18.0,30.0,36,0.00,,,0.00,0.000000,,2013-09-27 21:44:00,
2013-09-27 16:54:00,91.0,60.0,-100.00,SSE,163,18.0,30.0,36,0.00,,,0.00,0.000000,,2013-09-27 21:54:00,
2013-09-27 17:24:00,90.0,60.0,-100.00,SSE,159,19.0,27.0,37,0.00,,,0.00,0.000000,,2013-09-27 22:24:00,
2013-09-27 17:34:00,90.0,60.0,-100.00,SSE,159,19.0,27.0,37,0.00,,,0.00,0.000000,,2013-09-27 22:34:00,
2013-09-27 17:43:00,90.0,60.0,-100.00,SSE,159,19.0,27.0,37,0.00,,,0.00,0.000000,,2013-09-27 22:43:00,
2013-09-27 17:53:00,90.0,60.0,-100.00,SSE,159,19.0,27.0,37,0.00,,,0.00,0.000000,,2013-09-27 22:53:00,
2013-09-27 18:22:00,85.0,61.0,-100.00,SSE,151,19.0,29.0,45,0.00,,,0.00,0.000000,,2013-09-27 23:22:00,
2013-09-27 18:34:00,85.0,61.0,-100.00,SSE,151,19.0,29.0,45,0.00,,,0.00,0.000000,,2013-09-27 23:34:00,
2013-09-27 18:43:00,85.0,61.0,-100.00,SSE,151,19.0,29.0,45,0.00,,,0.00,0.000000,,2013-09-27 23:43:00,
2013-09-27 18:53:00,85.0,61.0,-100.00,SSE,151,19.0,29.0,45,0.00,,,0.00,0.000000,,2013-09-27 23:53:00,
2013-09-27 19:22:00,81.0,59.0,-100.00,SSE,153,18.0,27.0,48,0.00,,,0.00,0.000000,,2013-09-28 00:22:00,
2013-09-27 19:32:00,81.0,59.0,-100.00,SSE,153,18.0,27.0,48,0.00,,,0.00,0.000000,,2013-09-28 00:32:00,
2013-09-27 19:42:00,81.0,59.0,-100.00,SSE,153,18.0,27.0,48,0.00,,,0.00,0.000000,,2013-09-28 00:42:00,
2013-09-27 19:52:00,81.0,59.0,-100.00,SSE,153,18.0,27.0,48,0.00,,,0.00,0.000000,,2013-09-28 00:52:00,
2013-09-27 20:22:00,80.0,60.0,-100.00,SSE,154,16.0,25.0,51,0.00,,,0.00,0.000000,,2013-09-28 01:22:00,
2013-09-27 20:32:00,80.0,60.0,-100.00,SSE,154,16.0,25.0,51,0.00,,,0.00,0.000000,,2013-09-28 01:32:00,
2013-09-27 20:42:00,80.0,60.0,-100.00,SSE,154,16.0,25.0,51,0.00,,,0.00,0.000000,,2013-09-28 01:42:00,
2013-09-27 20:52:00,80.0,60.0,-100.00,SSE,154,16.0,25.0,51,0.00,,,0.00,0.000000,,2013-09-28 01:52:00,
2013-09-27 21:22:00,78.0,59.0,-100.00,SE,140,16.0,24.0,53,0.00,,,0.00,0.000000,,2013-09-28 02:22:00,
2013-09-27 21:32:00,78.0,59.0,-100.00,SE,140,16.0,24.0,53,0.00,,,0.00,0.000000,,2013-09-28 02:32:00,
2013-09-27 21:42:00,78.0,59.0,-100.00,SE,140,16.0,24.0,53,0.00,,,0.00,0.000000,,2013-09-28 02:42:00,
2013-09-27 21:53:00,78.0,59.0,-100.00,SE,140,16.0,24.0,53,0.00,,,0.00,0.000000,,2013-09-28 02:53:00,
2013-09-27 22:22:00,77.0,60.0,-100.00,SE,145,21.0,30.0,55,0.00,,,0.00,0.000000,,2013-09-28 03:22:00,
2013-09-27 22:34:00,77.0,60.0,-100.00,SE,145,21.0,30.0,55,0.00,,,0.00,0.000000,,2013-09-28 03:34:00,
2013-09-27 22:45:00,77.0,60.0,-100.00,SE,145,21.0,30.0,55,0.00,,,0.00,0.000000,,2013-09-28 03:45:00,
2013-09-27 22:55:00,77.0,60.0,-100.00,SE,145,21.0,30.0,55,0.00,,,0.00,0.000000,,2013-09-28 03:55:00,
2013-09-27 23:25:00,76.0,59.0,-100.00,SE,140,24.0,33.0,55,0.00,,,0.00,0.000000,,2013-09-28 04:25:00,
2013-09-27 23:34:00,76.0,59.0,-100.00,SE,140,24.0,33.0,55,0.00,,,0.00,0.000000,,2013-09-28 04:34:00,
2013-09-27 23:43:00,76.0,59.0,-100.00,SE,140,24.0,33.0,55,0.00,,,0.00,0.000000,,2013-09-28 04:43:00,
2013-09-27 23:54:00,76.0,59.0,-100.00,SE,140,24.0,33.0,55,0.00,,,0.00,0.000000,,2013-09-28 04:54:00,